createdAt,value
2023-05-06T00:04:25.659Z,68.82
2023-05-06T00:07:12.672Z,60.17
2023-05-06T00:09:59.030Z,70.65
2023-05-06T00:12:45.228Z,70.82
2023-05-06T00:15:32.299Z,94.35
2023-05-06T00:18:25.356Z,85.18
2023-05-06T00:21:12.589Z,94.07
2023-05-06T00:23:58.616Z,99.40
2023-05-06T00:26:51.216Z,104.85
2023-05-06T00:29:43.821Z,93.63
2023-05-06T00:32:36.268Z,81.10
2023-05-06T00:35:29.654Z,87.80
2023-05-06T00:38:24.268Z,109.03
2023-05-06T00:41:18.949Z,90.73
2023-05-06T00:47:24.941Z,85.93
2023-05-06T00:50:18.642Z,86.25
2023-05-06T00:53:11.449Z,77.45
2023-05-06T00:56:06.182Z,90.90
2023-05-06T00:59:00.616Z,94.40
2023-05-06T01:01:53.819Z,86.15
2023-05-06T01:04:47.264Z,82.88
2023-05-06T01:07:44.970Z,78.53
2023-05-06T01:10:43.808Z,80.22
2023-05-06T01:13:41.473Z,78.13
2023-05-06T01:16:38.824Z,84.10
2023-05-06T01:19:38.807Z,61.72
2023-05-06T01:22:31.421Z,69.40
2023-05-06T01:25:25.383Z,89.28
2023-05-06T01:28:18.393Z,84.45
2023-05-06T01:31:13.956Z,80.82
2023-05-06T01:34:11.743Z,168.57
2023-05-06T01:37:08.577Z,76.78
2023-05-06T01:40:01.684Z,92.38
2023-05-06T01:42:56.110Z,85.60
2023-05-06T01:45:53.210Z,93.83
2023-05-06T01:48:46.905Z,117.60
2023-05-06T01:51:39.980Z,87.53
2023-05-06T01:54:40.773Z,91.88
2023-05-06T01:57:33.176Z,90.82
2023-05-06T02:00:30.253Z,125.53
2023-05-06T02:03:23.048Z,120.63
2023-05-06T02:06:15.777Z,131.25
2023-05-06T02:09:10.039Z,117.28
2023-05-06T02:12:12.915Z,79.40
2023-05-06T02:15:07.219Z,112.32
2023-05-06T02:18:01.486Z,273.67
2023-05-06T02:20:53.872Z,118.70
2023-05-06T02:23:48.103Z,176.10
2023-05-06T02:26:40.846Z,281.38
2023-05-06T02:32:46.959Z,302.92
2023-05-06T02:35:42.031Z,300.08
2023-05-06T02:41:45.800Z,209.43
2023-05-06T02:44:39.526Z,122.18
2023-05-06T02:47:46.059Z,203.60
2023-05-06T02:50:39.182Z,206.77
2023-05-06T02:53:33.520Z,195.00
2023-05-06T02:56:25.843Z,190.07
2023-05-06T02:59:18.899Z,231.45
2023-05-06T03:02:12.204Z,218.88
2023-05-06T03:05:05.030Z,119.05
2023-05-06T03:07:58.755Z,132.40
2023-05-06T03:10:51.189Z,98.32
2023-05-06T03:13:46.193Z,80.50
2023-05-06T03:16:39.053Z,116.13
2023-05-06T03:19:31.786Z,90.30
2023-05-06T03:22:25.132Z,103.18
2023-05-06T03:25:18.424Z,81.38
2023-05-06T03:31:45.616Z,73.65
2023-05-06T03:37:51.279Z,50.83
2023-05-06T03:40:44.998Z,50.78
2023-05-06T03:43:46.418Z,55.28
2023-05-06T03:46:41.537Z,83.07
2023-05-06T03:49:35.022Z,246.45
2023-05-06T03:52:28.124Z,55.88
2023-05-06T03:55:21.179Z,64.68
2023-05-06T03:58:13.895Z,117.43
2023-05-06T04:01:08.995Z,59.38
2023-05-06T04:04:02.316Z,60.67
2023-05-06T04:06:58.208Z,72.65
2023-05-06T04:10:16.032Z,88.33
2023-05-06T04:13:13.133Z,114.15
2023-05-06T04:16:10.514Z,120.90
2023-05-06T04:19:07.060Z,170.40
2023-05-06T04:22:02.410Z,204.73
2023-05-06T04:24:56.222Z,108.28
2023-05-06T04:27:49.614Z,112.43
2023-05-06T04:30:42.900Z,159.70
2023-05-06T04:33:36.191Z,104.35
2023-05-06T04:37:11.207Z,92.50
2023-05-06T04:40:12.143Z,98.35
2023-05-06T04:43:31.248Z,119.50
2023-05-06T04:46:31.830Z,124.30
2023-05-06T04:49:50.475Z,152.88
2023-05-06T04:52:44.237Z,118.05
2023-05-06T04:55:54.120Z,83.38
2023-05-06T04:58:48.157Z,161.80
2023-05-06T05:05:28.276Z,119.28
2023-05-06T05:08:23.316Z,69.70
2023-05-06T05:11:16.414Z,61.90
2023-05-06T05:14:10.410Z,75.07
2023-05-06T05:17:03.336Z,71.90
2023-05-06T05:20:21.126Z,83.53
2023-05-06T05:23:13.903Z,64.32
2023-05-06T05:26:08.956Z,79.47
2023-05-06T05:29:02.069Z,45.22
2023-05-06T05:31:56.462Z,49.90
2023-05-06T05:34:44.718Z,50.53
2023-05-06T05:37:38.133Z,52.78
2023-05-06T05:40:32.035Z,51.45
2023-05-06T05:43:25.925Z,60.75
2023-05-06T05:46:19.765Z,50.73
2023-05-06T05:49:15.281Z,16.83
2023-05-06T05:55:21.764Z,18.00
2023-05-06T05:58:15.841Z,25.90
2023-05-06T06:01:10.103Z,18.67
2023-05-06T06:04:03.064Z,33.47
2023-05-06T06:06:59.258Z,27.73
2023-05-06T06:09:53.004Z,30.58
2023-05-06T06:12:45.825Z,22.23
2023-05-06T06:15:42.951Z,19.98
2023-05-06T06:18:38.950Z,14.32
2023-05-06T06:21:32.188Z,10.15
2023-05-06T06:24:27.027Z,13.93
2023-05-06T06:27:19.829Z,10.13
2023-05-06T06:30:13.717Z,10.48
2023-05-06T06:33:05.764Z,16.02
2023-05-06T06:35:59.108Z,10.27
2023-05-06T06:38:51.802Z,12.45
2023-05-06T06:41:45.186Z,11.32
2023-05-06T06:44:38.110Z,11.85
2023-05-06T06:47:31.242Z,10.15
2023-05-06T06:53:36.337Z,7.53
2023-05-06T06:56:29.216Z,9.07
2023-05-06T06:59:17.340Z,9.90
2023-05-06T07:02:09.771Z,10.57
2023-05-06T07:05:02.266Z,10.02
2023-05-06T07:07:55.335Z,9.60
2023-05-06T07:10:48.039Z,9.45
2023-05-06T07:13:44.839Z,9.70
2023-05-06T07:16:39.344Z,9.00
2023-05-06T07:19:32.368Z,9.63
2023-05-06T07:22:25.093Z,11.77
2023-05-06T07:25:17.900Z,11.50
2023-05-06T07:28:10.778Z,10.68
2023-05-06T07:34:15.473Z,9.75
2023-05-06T07:37:08.674Z,9.95
2023-05-06T07:40:00.773Z,9.52
2023-05-06T07:42:53.204Z,10.05
2023-05-06T07:45:45.952Z,10.98
2023-05-06T07:48:39.151Z,8.60
2023-05-06T07:51:33.548Z,9.63
2023-05-06T07:54:25.902Z,10.73
2023-05-06T07:57:18.919Z,8.13
2023-05-06T08:00:12.751Z,8.23
2023-05-06T08:03:05.288Z,7.40
2023-05-06T08:05:58.359Z,7.43
2023-05-06T08:08:52.611Z,8.50
2023-05-06T08:11:44.992Z,6.90
2023-05-06T08:14:38.196Z,7.93
2023-05-06T08:17:31.208Z,7.05
2023-05-06T08:20:24.094Z,6.15
2023-05-06T08:23:17.203Z,6.25
2023-05-06T08:26:11.355Z,7.82
2023-05-06T08:29:03.992Z,5.85
2023-05-06T08:31:57.274Z,6.88
2023-05-06T08:34:50.163Z,7.32
2023-05-06T08:37:43.026Z,6.30
2023-05-06T08:40:42.664Z,6.65
2023-05-06T08:43:41.500Z,8.35
2023-05-06T08:46:34.045Z,7.85
2023-05-06T08:49:27.146Z,9.07
2023-05-06T08:52:21.238Z,8.98
2023-05-06T08:55:14.619Z,7.72
2023-05-06T08:58:07.921Z,7.60
2023-05-06T09:01:04.040Z,6.68
2023-05-06T09:03:57.258Z,6.63
2023-05-06T09:06:52.100Z,5.93
2023-05-06T09:13:01.436Z,7.13
2023-05-06T09:15:55.272Z,6.57
2023-05-06T09:18:49.176Z,6.25
2023-05-06T09:21:43.833Z,5.35
2023-05-06T09:24:37.188Z,7.32
2023-05-06T09:27:33.849Z,6.93
2023-05-06T09:30:26.724Z,6.30
2023-05-06T09:33:19.027Z,4.68
2023-05-06T09:40:00.938Z,6.53
2023-05-06T09:42:54.050Z,4.85
2023-05-06T09:45:47.231Z,6.03
2023-05-06T09:48:40.491Z,5.50
2023-05-06T09:51:33.697Z,5.68
2023-05-06T09:54:26.361Z,7.72
2023-05-06T09:57:20.723Z,6.50
2023-05-06T10:00:13.879Z,6.38
2023-05-06T10:03:07.576Z,4.95
2023-05-06T10:06:02.113Z,5.15
2023-05-06T10:08:55.716Z,5.75
2023-05-06T10:11:48.409Z,4.55
2023-05-06T10:14:42.321Z,3.40
2023-05-06T10:17:35.952Z,4.13
2023-05-06T10:20:30.673Z,3.85
2023-05-06T10:23:26.163Z,5.22
2023-05-06T10:26:20.749Z,5.20
2023-05-06T10:29:14.613Z,4.40
2023-05-06T10:32:03.231Z,8.80
2023-05-06T10:34:57.184Z,4.40
2023-05-06T10:37:43.940Z,3.28
2023-05-06T10:40:31.249Z,3.08
2023-05-06T10:43:25.301Z,3.15
2023-05-06T10:46:12.848Z,2.72
2023-05-06T10:49:20.297Z,3.90
2023-05-06T10:52:14.416Z,7.57
2023-05-06T10:55:00.891Z,11.60
2023-05-06T10:57:46.906Z,7.72
2023-05-06T11:03:28.593Z,4.10
2023-05-06T11:09:32.799Z,5.07
2023-05-06T11:12:21.326Z,3.03
2023-05-06T11:18:41.779Z,3.33
2023-05-06T11:24:40.595Z,4.07
2023-05-06T11:30:42.099Z,3.75
2023-05-06T11:33:32.755Z,4.25
2023-05-06T11:36:25.643Z,3.70
2023-05-06T11:39:18.163Z,4.15
2023-05-06T11:42:12.255Z,4.07
2023-05-06T11:45:05.771Z,4.00
2023-05-06T11:47:58.243Z,3.72
2023-05-06T11:50:51.417Z,3.42
2023-05-06T11:53:44.126Z,3.75
2023-05-06T11:56:45.427Z,6.30
2023-05-06T11:59:40.744Z,3.00
2023-05-06T12:02:33.633Z,6.22
2023-05-06T12:05:27.488Z,5.05
2023-05-06T12:08:27.316Z,2.83
2023-05-06T12:11:22.211Z,3.15
2023-05-06T12:17:27.004Z,2.63
2023-05-06T12:23:32.535Z,3.67
2023-05-06T12:26:27.087Z,6.82
2023-05-06T12:29:57.299Z,4.35
2023-05-06T12:33:01.026Z,2.55
2023-05-06T12:35:56.902Z,3.55
2023-05-06T12:42:01.465Z,4.25
2023-05-06T12:44:53.984Z,5.60
2023-05-06T12:47:41.203Z,3.47
2023-05-06T12:50:40.390Z,4.07
2023-05-06T12:53:34.783Z,3.80
2023-05-06T12:56:27.199Z,2.92
2023-05-06T12:59:20.266Z,4.20
2023-05-06T13:02:13.674Z,3.17
2023-05-06T13:05:43.321Z,3.35
2023-05-06T13:08:37.350Z,3.33
2023-05-06T13:11:30.320Z,4.78
2023-05-06T13:14:23.601Z,5.05
2023-05-06T13:17:16.143Z,2.92
2023-05-06T13:20:09.832Z,4.70
2023-05-06T13:23:28.160Z,3.83
2023-05-06T13:26:22.335Z,3.65
2023-05-06T13:29:32.412Z,3.15
2023-05-06T13:32:22.211Z,3.70
2023-05-06T13:38:36.255Z,4.95
2023-05-06T13:41:30.704Z,2.60
2023-05-06T13:44:24.294Z,6.82
2023-05-06T13:47:16.939Z,4.15
2023-05-06T13:53:25.443Z,3.20
2023-05-06T13:56:18.374Z,1.90
2023-05-06T13:59:13.845Z,4.10
2023-05-06T14:02:09.347Z,2.65
2023-05-06T14:05:02.733Z,3.80
2023-05-06T14:07:55.024Z,3.03
2023-05-06T14:10:48.309Z,2.08
2023-05-06T14:13:41.380Z,3.33
2023-05-06T14:16:35.610Z,4.75
2023-05-06T14:19:29.905Z,4.82
2023-05-06T14:22:22.244Z,4.25
2023-05-06T14:25:15.081Z,3.15
2023-05-06T14:28:09.339Z,4.47
2023-05-06T14:31:02.194Z,6.75
2023-05-06T14:33:57.289Z,3.00
2023-05-06T14:36:51.704Z,2.75
2023-05-06T14:39:44.452Z,2.40
2023-05-06T14:42:37.457Z,3.40
2023-05-06T14:45:30.922Z,4.93
2023-05-06T14:48:25.196Z,3.70
2023-05-06T14:51:19.580Z,3.85
2023-05-06T14:54:12.131Z,2.45
2023-05-06T14:57:05.337Z,6.72
2023-05-06T14:59:58.337Z,2.63
2023-05-06T15:02:51.317Z,2.72
2023-05-06T15:08:57.796Z,3.55
2023-05-06T15:11:50.331Z,3.00
2023-05-06T15:14:43.282Z,4.45
2023-05-06T15:17:36.305Z,4.35
2023-05-06T15:20:29.474Z,3.50
2023-05-06T15:23:22.230Z,3.80
2023-05-06T15:26:16.148Z,2.88
2023-05-06T15:32:21.483Z,3.20
2023-05-06T15:35:14.461Z,4.70
2023-05-06T15:38:03.481Z,5.05
2023-05-06T15:40:55.978Z,2.78
2023-05-06T15:43:49.411Z,3.50
2023-05-06T15:46:44.136Z,4.78
2023-05-06T15:55:46.752Z,4.03
2023-05-06T16:04:55.431Z,2.22
2023-05-06T16:07:48.392Z,1.95
2023-05-06T16:10:41.127Z,4.60
2023-05-06T16:13:34.439Z,2.95
2023-05-06T16:19:37.315Z,6.18
2023-05-06T16:25:42.522Z,3.50
2023-05-06T16:28:35.124Z,4.78
2023-05-06T16:31:28.277Z,4.28
2023-05-06T16:34:21.305Z,2.15
2023-05-06T16:37:15.779Z,3.42
2023-05-06T16:40:10.444Z,3.08
2023-05-06T16:43:03.327Z,4.45
2023-05-06T16:45:56.384Z,2.97
2023-05-06T16:48:49.239Z,3.45
2023-05-06T16:51:42.343Z,4.15
2023-05-06T16:54:36.706Z,3.92
2023-05-06T16:57:28.972Z,3.40
2023-05-06T17:03:41.284Z,5.47
2023-05-06T17:06:34.438Z,4.03
2023-05-06T17:09:26.961Z,4.85
2023-05-06T17:12:23.729Z,4.53
2023-05-06T17:18:28.487Z,5.18
2023-05-06T17:24:37.457Z,3.95
2023-05-06T17:30:44.491Z,7.85
2023-05-06T17:33:38.827Z,4.53
2023-05-06T17:36:37.157Z,5.72
2023-05-06T17:39:30.160Z,5.95
2023-05-06T17:42:23.111Z,13.98
2023-05-06T17:45:17.902Z,12.82
2023-05-06T17:48:10.122Z,6.13
2023-05-06T17:51:03.736Z,7.80
2023-05-06T17:53:55.951Z,7.72
2023-05-06T17:56:50.408Z,5.90
2023-05-06T17:59:43.537Z,5.15
2023-05-06T18:02:37.863Z,4.97
2023-05-06T18:05:30.226Z,6.70
2023-05-06T18:08:37.574Z,5.07
2023-05-06T18:11:29.988Z,6.55
2023-05-06T18:18:09.627Z,6.63
2023-05-06T18:21:17.461Z,6.07
2023-05-06T18:24:15.967Z,5.88
2023-05-06T18:30:45.391Z,10.43
2023-05-06T18:33:39.678Z,7.05
2023-05-06T18:39:52.489Z,6.35
2023-05-06T18:46:06.321Z,8.90
2023-05-06T18:49:01.371Z,8.10
2023-05-06T18:51:54.619Z,6.90
2023-05-06T18:54:47.571Z,7.35
2023-05-06T18:57:40.049Z,6.40
2023-05-06T19:00:33.021Z,8.05
2023-05-06T19:03:26.220Z,10.80
2023-05-06T19:06:20.441Z,8.63
2023-05-06T19:09:13.356Z,8.65
2023-05-06T19:12:06.650Z,8.85
2023-05-06T19:14:59.949Z,8.80
2023-05-06T19:17:52.311Z,7.78
2023-05-06T19:20:45.584Z,12.77
2023-05-06T19:23:39.791Z,7.93
2023-05-06T19:27:00.463Z,10.15
2023-05-06T19:29:53.334Z,9.00
2023-05-06T19:33:23.402Z,12.88
2023-05-06T19:36:17.189Z,9.48
2023-05-06T19:39:47.399Z,10.02
2023-05-06T19:42:41.345Z,12.23
2023-05-06T19:45:34.737Z,14.75
2023-05-06T19:51:39.495Z,7.55
2023-05-06T19:54:32.139Z,15.07
2023-05-06T19:57:26.809Z,9.38
2023-05-06T20:00:21.900Z,8.55
2023-05-06T20:03:14.554Z,10.75
2023-05-06T20:06:07.459Z,8.10
2023-05-06T20:12:36.233Z,9.27
2023-05-06T20:15:30.915Z,9.05
2023-05-06T20:18:23.640Z,8.23
2023-05-06T20:21:16.586Z,8.07
2023-05-06T20:24:09.428Z,10.73
2023-05-06T20:27:02.378Z,8.95
2023-05-06T20:29:54.946Z,8.02
2023-05-06T20:32:50.226Z,17.85
2023-05-06T20:35:44.545Z,15.55
2023-05-06T20:38:39.065Z,14.70
2023-05-06T20:41:32.877Z,13.93
2023-05-06T20:44:25.775Z,6.55
2023-05-06T20:47:18.349Z,7.95
2023-05-06T20:53:26.582Z,8.13
2023-05-06T20:56:20.474Z,8.07
2023-05-06T20:59:13.019Z,5.97
2023-05-06T21:02:05.903Z,12.50
2023-05-06T21:04:58.166Z,6.63
2023-05-06T21:07:50.479Z,6.45
2023-05-06T21:10:44.832Z,7.05
2023-05-06T21:13:37.457Z,6.00
2023-05-06T21:16:30.382Z,6.38
2023-05-06T21:19:22.991Z,9.38
2023-05-06T21:22:18.940Z,6.10
2023-05-06T21:25:12.997Z,8.10
2023-05-06T21:31:54.518Z,8.35
2023-05-06T21:34:47.504Z,8.30
2023-05-06T21:37:40.459Z,6.95
2023-05-06T21:40:33.441Z,7.32
2023-05-06T21:43:26.068Z,10.00
2023-05-06T21:46:19.568Z,9.50
2023-05-06T21:49:13.572Z,8.80
2023-05-06T21:52:07.315Z,7.85
2023-05-06T21:55:00.582Z,8.82
2023-05-06T21:57:52.867Z,7.55
2023-05-06T22:00:45.959Z,9.52
2023-05-06T22:03:38.472Z,7.32
2023-05-06T22:06:32.290Z,8.35
2023-05-06T22:09:24.980Z,11.82
2023-05-06T22:12:19.826Z,9.55
2023-05-06T22:15:14.471Z,13.70
2023-05-06T22:18:08.524Z,11.73
2023-05-06T22:21:01.182Z,15.35
2023-05-06T22:23:55.458Z,14.65
2023-05-06T22:26:48.022Z,17.13
2023-05-06T22:29:40.246Z,16.40
2023-05-06T22:32:33.049Z,17.10
2023-05-06T22:35:26.402Z,17.67
2023-05-06T22:38:19.392Z,17.27
2023-05-06T22:41:13.650Z,19.40
2023-05-06T22:44:06.580Z,18.05
2023-05-06T22:47:02.608Z,17.35
2023-05-06T22:49:55.427Z,19.10
2023-05-06T22:56:09.114Z,15.73
2023-05-06T22:59:03.694Z,19.13
2023-05-06T23:01:56.203Z,16.73
2023-05-06T23:04:49.294Z,20.23
2023-05-06T23:07:52.669Z,20.70
2023-05-06T23:10:39.484Z,19.25
2023-05-06T23:13:35.889Z,19.45
2023-05-06T23:19:22.999Z,18.63
2023-05-06T23:25:31.518Z,18.30
2023-05-06T23:31:37.895Z,17.30
2023-05-06T23:34:29.987Z,18.70
2023-05-06T23:37:17.401Z,18.58
2023-05-06T23:40:12.387Z,18.05
2023-05-06T23:42:58.294Z,19.07
2023-05-06T23:45:44.388Z,17.92
2023-05-06T23:48:31.816Z,21.25
2023-05-06T23:51:18.094Z,18.10
2023-05-06T23:54:03.918Z,17.77
2023-05-06T23:56:50.530Z,16.25
2023-05-06T23:59:54.300Z,22.08
